Time;durP1;ratioP1;P1;durP2;ratioP2;P2;SDS_P1;SDS_P2;PMS_P1;PMS_P2;Temp;Humidity;BMP_temperature;BMP_pressure;BME280_temperature;BME280_humidity;BME280_pressure;Samples;Min_cycle;Max_cycle;Signal;HPM_P1;HPM_P2
2023/07/22 00:00:29;;;;;;;15.13;8.73;;;13.40;99.90;;;;;;7370767;19;20045;-64
2023/07/22 00:02:56;;;;;;;17.17;9.50;;;13.40;99.90;;;;;;7373795;19;20391;-59
2023/07/22 00:05:23;;;;;;;15.77;8.95;;;13.40;99.90;;;;;;7374984;19;20019;-59
2023/07/22 00:07:50;;;;;;;15.18;9.20;;;13.30;99.90;;;;;;7376163;19;20823;-58
2023/07/22 00:10:16;;;;;;;14.07;9.00;;;13.30;99.90;;;;;;7371642;19;20014;-59
2023/07/22 00:12:43;;;;;;;14.38;9.25;;;13.20;99.90;;;;;;7372641;19;20030;-59
2023/07/22 00:15:11;;;;;;;15.57;10.32;;;13.20;99.90;;;;;;7374870;19;20085;-58
2023/07/22 00:17:40;;;;;;;13.95;9.38;;;13.10;99.90;;;;;;7373122;19;20018;-64
2023/07/22 00:20:09;;;;;;;13.30;9.30;;;13.00;99.90;;;;;;7372884;19;20037;-59
2023/07/22 00:22:35;;;;;;;14.98;8.98;;;12.90;99.90;;;;;;7371957;19;21071;-58
2023/07/22 00:25:02;;;;;;;17.33;9.05;;;12.80;99.90;;;;;;7370311;19;20022;-59
2023/07/22 00:27:28;;;;;;;13.73;9.38;;;12.70;99.90;;;;;;7366522;19;20034;-58
2023/07/22 00:29:56;;;;;;;13.80;8.45;;;12.70;99.90;;;;;;7371865;19;20356;-64
2023/07/22 00:32:22;;;;;;;17.85;9.65;;;12.70;99.90;;;;;;7368361;19;20015;-64
2023/07/22 00:34:49;;;;;;;11.60;8.52;;;12.60;99.90;;;;;;7365249;19;20018;-63
2023/07/22 00:37:16;;;;;;;17.05;10.27;;;12.60;99.90;;;;;;7367375;19;20014;-58
2023/07/22 00:39:43;;;;;;;15.43;9.90;;;12.50;99.90;;;;;;7365747;19;20726;-58
2023/07/22 00:42:09;;;;;;;14.73;9.52;;;12.50;99.90;;;;;;7371317;19;20592;-58
2023/07/22 00:44:37;;;;;;;14.48;9.50;;;12.40;99.90;;;;;;7368794;19;20025;-58
2023/07/22 00:47:04;;;;;;;14.50;9.20;;;12.40;99.90;;;;;;7369109;19;20023;-58
2023/07/22 00:49:31;;;;;;;13.80;9.32;;;12.40;99.90;;;;;;7366281;19;20062;-58
2023/07/22 00:52:04;;;;;;;19.02;9.85;;;12.30;99.90;;;;;;7370369;19;20021;-57
2023/07/22 00:54:31;;;;;;;16.05;9.50;;;12.30;99.90;;;;;;7371913;19;20597;-58
2023/07/22 00:56:57;;;;;;;14.05;9.73;;;12.30;99.90;;;;;;7371895;19;20029;-58
2023/07/22 00:59:28;;;;;;;17.08;10.95;;;12.20;99.90;;;;;;7367830;19;20313;-58
2023/07/22 01:01:57;;;;;;;15.13;10.55;;;12.20;99.90;;;;;;7371174;19;20011;-58
2023/07/22 01:04:25;;;;;;;17.25;10.02;;;12.10;99.90;;;;;;7370779;19;20033;-63
2023/07/22 01:06:54;;;;;;;17.15;10.52;;;12.10;99.90;;;;;;7371803;19;20011;-58
2023/07/22 01:09:21;;;;;;;17.20;10.10;;;12.00;99.90;;;;;;7365009;19;20026;-58
2023/07/22 01:11:48;;;;;;;16.35;10.32;;;12.00;99.90;;;;;;7360130;19;20010;-58
2023/07/22 01:14:15;;;;;;;16.70;10.15;;;12.00;99.90;;;;;;7363031;19;20105;-58
2023/07/22 01:16:42;;;;;;;16.55;11.40;;;12.00;99.90;;;;;;7345734;19;20742;-58
2023/07/22 01:19:10;;;;;;;17.55;11.05;;;11.90;99.90;;;;;;7357326;19;20019;-60
2023/07/22 01:21:38;;;;;;;17.02;10.70;;;12.00;99.90;;;;;;7358845;19;20347;-63
2023/07/22 01:24:04;;;;;;;18.95;11.60;;;12.00;99.90;;;;;;7368765;19;20055;-64
2023/07/22 01:26:31;;;;;;;15.68;11.20;;;12.00;99.90;;;;;;7370244;19;20021;-58
2023/07/22 01:29:05;;;;;;;20.13;11.40;;;12.10;99.90;;;;;;7368212;19;20022;-58
2023/07/22 01:31:35;;;;;;;17.27;10.68;;;12.10;99.90;;;;;;7368235;19;20623;-64
2023/07/22 01:34:03;;;;;;;16.90;11.40;;;12.10;99.90;;;;;;7365502;19;20025;-64
2023/07/22 01:36:30;;;;;;;18.85;11.65;;;12.10;99.90;;;;;;7367633;19;20021;-59
2023/07/22 01:38:56;;;;;;;15.05;10.68;;;12.10;99.90;;;;;;7367101;19;20035;-59
2023/07/22 01:41:24;;;;;;;15.77;10.45;;;12.10;99.90;;;;;;7363395;19;20083;-64
2023/07/22 01:43:50;;;;;;;16.98;10.25;;;12.00;99.90;;;;;;7368691;19;20450;-59
2023/07/22 01:46:16;;;;;;;15.45;10.38;;;11.90;99.90;;;;;;7373309;19;20430;-59
2023/07/22 01:48:42;;;;;;;19.45;10.90;;;11.90;99.90;;;;;;7371429;19;20015;-64
2023/07/22 01:51:09;;;;;;;17.92;10.75;;;12.00;99.90;;;;;;7371505;19;20024;-64
2023/07/22 01:53:36;;;;;;;18.05;11.48;;;11.90;99.90;;;;;;7370742;19;20026;-63
2023/07/22 01:56:02;;;;;;;18.67;11.30;;;11.80;99.90;;;;;;7370153;19;20022;-61
2023/07/22 01:58:28;;;;;;;16.90;11.57;;;11.90;99.90;;;;;;7368379;19;20018;-58
2023/07/22 02:00:56;;;;;;;16.83;9.95;;;11.80;99.90;;;;;;7370098;19;20030;-59
2023/07/22 02:03:22;;;;;;;15.43;11.60;;;11.80;99.90;;;;;;7368705;19;20608;-58
2023/07/22 02:05:49;;;;;;;18.25;11.07;;;11.80;99.90;;;;;;7371603;19;20048;-58
2023/07/22 02:08:15;;;;;;;17.48;11.98;;;11.80;99.90;;;;;;7372352;19;20018;-58
2023/07/22 02:10:41;;;;;;;18.92;12.10;;;11.70;99.90;;;;;;7371138;19;20047;-59
2023/07/22 02:13:08;;;;;;;17.92;11.40;;;11.70;99.90;;;;;;7370465;19;20021;-59
2023/07/22 02:15:36;;;;;;;20.90;12.23;;;11.70;99.90;;;;;;7370105;19;20022;-59
2023/07/22 02:18:03;;;;;;;17.63;11.32;;;11.70;99.90;;;;;;7368009;19;20023;-60
2023/07/22 02:20:30;;;;;;;16.23;11.02;;;11.70;99.90;;;;;;7367576;19;20029;-59
2023/07/22 02:22:56;;;;;;;17.23;11.75;;;11.70;99.90;;;;;;7372199;19;20445;-59
2023/07/22 02:25:23;;;;;;;16.63;11.82;;;11.70;99.90;;;;;;7372371;19;20026;-64
2023/07/22 02:27:50;;;;;;;19.35;11.48;;;11.70;99.90;;;;;;7375718;19;20100;-64
2023/07/22 02:30:17;;;;;;;16.13;11.93;;;11.80;99.90;;;;;;7370812;19;20410;-64
2023/07/22 02:32:43;;;;;;;18.60;12.55;;;11.80;99.90;;;;;;7369469;19;20374;-59
2023/07/22 02:35:10;;;;;;;18.20;12.07;;;11.80;99.90;;;;;;7373826;19;20022;-59
2023/07/22 02:37:38;;;;;;;20.42;11.93;;;11.80;99.90;;;;;;7372144;19;20026;-59
2023/07/22 02:40:08;;;;;;;17.25;11.90;;;11.80;99.90;;;;;;7372244;19;20020;-58
2023/07/22 02:42:37;;;;;;;19.33;12.18;;;11.80;99.90;;;;;;7371228;19;20803;-59
2023/07/22 02:45:04;;;;;;;16.40;11.60;;;11.80;99.90;;;;;;7373269;19;20464;-59
2023/07/22 02:47:32;;;;;;;17.45;11.63;;;11.80;99.90;;;;;;7368982;19;20022;-59
2023/07/22 02:49:59;;;;;;;18.88;11.48;;;11.80;99.90;;;;;;7368078;19;20023;-59
2023/07/22 02:52:26;;;;;;;19.38;12.05;;;11.80;99.90;;;;;;7362967;19;20014;-58
2023/07/22 02:55:18;;;;;;;16.67;12.30;;;11.80;99.90;;;;;;7368518;19;20342;-64
2023/07/22 02:57:46;;;;;;;16.70;12.07;;;11.90;99.90;;;;;;7370201;19;20029;-64
2023/07/22 03:00:20;;;;;;;18.63;11.90;;;11.90;99.90;;;;;;7369096;19;20033;-59
2023/07/22 03:02:46;;;;;;;18.50;11.32;;;11.90;99.90;;;;;;7370472;19;20545;-64
2023/07/22 03:05:12;;;;;;;15.80;11.18;;;11.90;99.90;;;;;;7373354;19;20474;-64
2023/07/22 03:07:39;;;;;;;17.20;11.63;;;11.90;99.90;;;;;;7371084;19;20022;-64
2023/07/22 03:10:06;;;;;;;17.77;11.40;;;11.90;99.90;;;;;;7369619;19;20025;-64
2023/07/22 03:12:34;;;;;;;16.40;11.07;;;11.90;99.90;;;;;;7369165;19;20470;-59
2023/07/22 03:15:00;;;;;;;15.75;11.13;;;11.90;99.90;;;;;;7367448;19;20478;-59
2023/07/22 03:17:27;;;;;;;16.80;11.55;;;11.90;99.90;;;;;;7372648;19;20352;-59
2023/07/22 03:19:54;;;;;;;16.25;12.60;;;12.00;99.90;;;;;;7373596;19;20019;-59
2023/07/22 03:22:20;;;;;;;21.90;12.27;;;11.90;99.90;;;;;;7370733;19;20477;-64
2023/07/22 03:24:46;;;;;;;17.10;12.07;;;12.00;99.90;;;;;;7369661;19;20018;-64
2023/07/22 03:27:14;;;;;;;20.98;12.02;;;12.00;99.90;;;;;;7368404;19;20703;-58
2023/07/22 03:29:41;;;;;;;19.42;12.45;;;12.10;99.90;;;;;;7369752;19;20036;-59
2023/07/22 03:32:07;;;;;;;19.52;13.18;;;12.10;99.90;;;;;;7370516;19;20487;-59
2023/07/22 03:34:35;;;;;;;21.88;14.52;;;12.10;99.90;;;;;;7368174;19;20026;-60
2023/07/22 03:37:01;;;;;;;21.50;13.43;;;12.10;99.90;;;;;;7370160;19;20762;-66
2023/07/22 03:39:28;;;;;;;22.73;14.38;;;12.20;99.90;;;;;;7371006;19;20429;-59
2023/07/22 03:41:54;;;;;;;18.40;12.23;;;12.30;99.90;;;;;;7371398;19;20038;-59
2023/07/22 03:44:21;;;;;;;23.20;13.90;;;12.30;99.90;;;;;;7370998;19;20433;-59
2023/07/22 03:46:47;;;;;;;22.88;14.75;;;12.30;99.90;;;;;;7371366;19;20464;-59
2023/07/22 03:49:14;;;;;;;19.27;13.55;;;12.40;99.90;;;;;;7363268;19;20019;-60
2023/07/22 03:51:40;;;;;;;20.10;13.02;;;12.40;99.90;;;;;;7371983;19;20047;-59
2023/07/22 03:54:06;;;;;;;22.00;14.25;;;12.50;99.90;;;;;;7368475;19;20592;-58
2023/07/22 03:56:33;;;;;;;18.33;12.98;;;12.50;99.90;;;;;;7366949;19;20024;-58
2023/07/22 03:59:02;;;;;;;18.67;13.50;;;12.60;99.90;;;;;;7369078;19;20593;-58
2023/07/22 04:01:28;;;;;;;19.00;13.07;;;12.60;99.90;;;;;;7369505;19;20060;-58
2023/07/22 04:03:54;;;;;;;21.63;14.52;;;12.60;99.90;;;;;;7367278;19;20011;-59
2023/07/22 04:06:20;;;;;;;20.48;14.00;;;12.70;99.90;;;;;;7363944;19;20424;-59
2023/07/22 04:08:47;;;;;;;22.88;14.98;;;12.70;99.90;;;;;;7369269;19;20026;-59
2023/07/22 04:11:14;;;;;;;19.63;13.18;;;12.70;99.90;;;;;;7369812;19;20486;-59
2023/07/22 04:13:40;;;;;;;18.95;14.77;;;12.70;99.90;;;;;;7368373;19;20126;-58
2023/07/22 04:16:06;;;;;;;25.55;14.35;;;12.70;99.90;;;;;;7368902;19;20014;-58
2023/07/22 04:18:34;;;;;;;19.85;13.57;;;12.80;99.90;;;;;;7369402;19;20025;-59
2023/07/22 04:21:01;;;;;;;23.95;15.05;;;12.80;99.90;;;;;;7365284;19;20025;-58
2023/07/22 04:23:27;;;;;;;20.58;14.07;;;12.90;99.90;;;;;;7366685;19;20627;-59
2023/07/22 04:25:53;;;;;;;21.00;13.52;;;12.90;99.90;;;;;;7367787;19;20763;-59
2023/07/22 04:28:20;;;;;;;21.15;14.13;;;13.00;99.90;;;;;;7367756;19;20022;-58
2023/07/22 04:30:55;;;;;;;19.50;14.32;;;13.00;99.90;;;;;;7367072;19;20018;-58
2023/07/22 04:33:22;;;;;;;25.52;15.07;;;13.10;99.90;;;;;;7367282;19;20014;-58
2023/07/22 04:35:48;;;;;;;22.23;14.73;;;13.10;99.90;;;;;;7366851;19;20010;-58
2023/07/22 04:38:14;;;;;;;21.90;14.43;;;13.10;99.90;;;;;;7370448;19;21178;-58
2023/07/22 04:40:44;;;;;;;18.55;13.77;;;13.20;99.90;;;;;;7366346;19;20093;-62
2023/07/22 04:43:12;;;;;;;22.27;15.27;;;13.20;99.90;;;;;;7367811;19;20481;-64
2023/07/22 04:45:42;;;;;;;22.00;14.45;;;13.30;99.90;;;;;;7366825;19;20035;-65
2023/07/22 04:48:08;;;;;;;23.55;15.20;;;13.20;99.90;;;;;;7369357;19;20043;-64
2023/07/22 04:50:34;;;;;;;21.75;13.60;;;13.30;99.90;;;;;;7365243;19;20022;-66
2023/07/22 04:53:00;;;;;;;21.35;14.43;;;13.30;99.90;;;;;;7369466;19;20018;-64
2023/07/22 04:55:29;;;;;;;20.30;14.48;;;13.40;99.90;;;;;;7364950;19;20021;-58
2023/07/22 04:57:55;;;;;;;18.83;13.52;;;13.40;99.90;;;;;;7367602;19;20015;-64
2023/07/22 05:00:22;;;;;;;24.50;15.10;;;13.50;99.90;;;;;;7368226;19;20014;-64
2023/07/22 05:02:48;;;;;;;20.27;14.50;;;13.50;99.90;;;;;;7359110;19;20049;-64
2023/07/22 05:05:16;;;;;;;19.45;14.20;;;13.50;99.90;;;;;;7363494;19;20039;-64
2023/07/22 05:07:42;;;;;;;22.23;14.43;;;13.50;99.90;;;;;;7366201;19;20026;-64
2023/07/22 05:10:11;;;;;;;19.15;13.35;;;13.60;99.90;;;;;;7365861;19;20025;-65
2023/07/22 05:12:38;;;;;;;21.80;14.63;;;13.60;99.90;;;;;;7364718;19;20020;-58
2023/07/22 05:15:06;;;;;;;21.38;14.15;;;13.60;99.90;;;;;;7363804;19;20014;-58
2023/07/22 05:17:33;;;;;;;22.23;14.90;;;13.60;99.90;;;;;;7366876;19;20018;-59
2023/07/22 05:20:03;;;;;;;21.48;13.43;;;13.70;99.90;;;;;;7377153;19;20425;-58
2023/07/22 05:22:30;;;;;;;22.85;14.73;;;13.60;99.90;;;;;;7372045;19;20026;-58
2023/07/22 05:24:56;;;;;;;24.30;14.52;;;13.70;99.90;;;;;;7377534;19;20026;-65
2023/07/22 05:27:22;;;;;;;23.33;14.68;;;13.70;99.90;;;;;;7375109;19;20018;-64
2023/07/22 05:29:49;;;;;;;24.02;15.48;;;13.70;99.90;;;;;;7373251;19;20015;-65
2023/07/22 05:32:15;;;;;;;22.88;13.95;;;13.70;99.90;;;;;;7369106;19;20015;-62
2023/07/22 05:34:41;;;;;;;18.52;14.57;;;13.70;99.90;;;;;;7368974;19;20015;-64
2023/07/22 05:37:07;;;;;;;22.67;13.88;;;13.70;99.90;;;;;;7379391;19;20346;-65
2023/07/22 05:39:34;;;;;;;20.55;14.23;;;13.70;99.90;;;;;;7373888;19;20193;-65
2023/07/22 05:42:00;;;;;;;19.60;13.93;;;13.70;99.90;;;;;;7374029;19;20018;-65
2023/07/22 05:44:26;;;;;;;21.75;13.90;;;13.70;99.90;;;;;;7373465;19;20029;-65
2023/07/22 05:46:53;;;;;;;22.17;14.90;;;13.70;99.90;;;;;;7374273;19;20583;-65
2023/07/22 05:49:20;;;;;;;21.48;14.98;;;13.80;99.90;;;;;;7372247;19;20589;-65
2023/07/22 05:51:46;;;;;;;21.25;15.10;;;13.70;99.90;;;;;;7377547;19;20022;-64
2023/07/22 05:54:12;;;;;;;21.63;14.77;;;13.80;99.90;;;;;;7372099;19;20670;-65
2023/07/22 05:56:38;;;;;;;20.45;14.43;;;13.80;99.90;;;;;;7374827;19;20022;-65
2023/07/22 05:59:05;;;;;;;20.45;15.65;;;13.80;99.90;;;;;;7375510;19;20022;-65
2023/07/22 06:01:31;;;;;;;23.08;15.02;;;13.90;99.90;;;;;;7373440;19;20022;-58
2023/07/22 06:03:58;;;;;;;23.98;15.38;;;13.90;99.90;;;;;;7369093;19;20023;-58
2023/07/22 06:06:24;;;;;;;22.30;14.63;;;14.00;99.90;;;;;;7375013;19;20095;-65
2023/07/22 06:08:50;;;;;;;19.77;14.85;;;14.00;99.90;;;;;;7375717;19;20047;-66
2023/07/22 06:11:17;;;;;;;22.17;16.38;;;14.00;99.90;;;;;;7376622;19;20045;-58
2023/07/22 06:13:43;;;;;;;21.75;15.57;;;14.10;99.90;;;;;;7373437;19;20459;-57
2023/07/22 06:16:10;;;;;;;22.27;14.60;;;14.10;99.90;;;;;;7375524;19;20026;-58
2023/07/22 06:18:36;;;;;;;20.88;14.40;;;14.20;99.90;;;;;;7377627;19;20022;-57
2023/07/22 06:21:02;;;;;;;20.85;14.27;;;14.30;99.90;;;;;;7373807;19;20022;-66
2023/07/22 06:23:30;;;;;;;22.65;15.02;;;14.40;99.90;;;;;;7372617;19;20029;-66
2023/07/22 06:25:56;;;;;;;22.80;15.45;;;14.50;99.90;;;;;;7374599;19;20119;-58
2023/07/22 06:28:22;;;;;;;23.88;15.05;;;14.50;99.90;;;;;;7366630;19;20014;-58
2023/07/22 06:30:48;;;;;;;20.50;14.05;;;14.60;99.90;;;;;;7369386;19;20022;-59
2023/07/22 06:33:16;;;;;;;24.38;15.57;;;14.70;99.90;;;;;;7374201;19;20034;-59
2023/07/22 06:35:42;;;;;;;22.08;16.10;;;14.80;99.90;;;;;;7371535;19;20010;-59
2023/07/22 06:38:08;;;;;;;23.45;15.70;;;15.00;99.90;;;;;;7374234;19;20018;-58
2023/07/22 06:40:34;;;;;;;22.67;16.17;;;15.00;99.90;;;;;;7369568;19;20018;-59
2023/07/22 06:43:01;;;;;;;22.25;16.63;;;15.20;99.90;;;;;;7372390;19;20956;-58
2023/07/22 06:45:27;;;;;;;24.92;16.73;;;15.20;99.90;;;;;;7371895;19;20006;-58
2023/07/22 06:47:54;;;;;;;23.48;17.88;;;15.40;99.90;;;;;;7372441;19;20905;-65
2023/07/22 06:50:20;;;;;;;21.42;16.17;;;15.50;99.90;;;;;;7370077;19;20102;-66
2023/07/22 06:52:46;;;;;;;27.42;18.23;;;15.80;99.90;;;;;;7367230;19;20019;-66
2023/07/22 06:55:13;;;;;;;23.73;17.88;;;16.00;99.90;;;;;;7366683;19;20018;-59
2023/07/22 06:57:39;;;;;;;25.02;18.90;;;16.30;99.90;;;;;;7368820;19;20026;-58
2023/07/22 07:00:06;;;;;;;20.90;17.23;;;16.30;99.90;;;;;;7371773;19;20018;-59
2023/07/22 07:02:32;;;;;;;22.70;17.02;;;16.40;99.90;;;;;;7371628;19;20355;-66
2023/07/22 07:05:00;;;;;;;21.35;15.80;;;16.40;99.90;;;;;;7370894;19;20557;-67
2023/07/22 07:07:26;;;;;;;21.25;16.30;;;16.40;99.90;;;;;;7371802;19;20547;-66
2023/07/22 07:09:52;;;;;;;23.10;15.95;;;16.40;99.90;;;;;;7363523;19;20041;-66
2023/07/22 07:12:19;;;;;;;21.95;16.73;;;16.60;99.90;;;;;;7366811;19;20082;-66
2023/07/22 07:14:45;;;;;;;21.45;16.63;;;16.70;99.90;;;;;;7370803;19;20090;-58
2023/07/22 07:17:11;;;;;;;23.38;16.38;;;16.80;99.90;;;;;;7372469;19;20035;-61
2023/07/22 07:19:37;;;;;;;19.58;15.80;;;16.80;99.90;;;;;;7367251;19;20018;-59
2023/07/22 07:22:04;;;;;;;20.48;15.93;;;16.90;99.90;;;;;;7370019;19;20023;-58
2023/07/22 07:24:30;;;;;;;24.23;16.65;;;17.00;99.90;;;;;;7366927;19;20022;-59
2023/07/22 07:26:57;;;;;;;18.92;14.95;;;17.00;99.90;;;;;;7366229;19;20094;-62
2023/07/22 07:29:23;;;;;;;20.08;16.35;;;17.00;99.90;;;;;;7370523;19;20019;-61
2023/07/22 07:31:49;;;;;;;20.70;15.85;;;17.10;99.90;;;;;;7374656;19;20025;-62
2023/07/22 07:34:15;;;;;;;20.83;16.08;;;17.00;99.90;;;;;;7370572;19;20018;-61
2023/07/22 07:36:42;;;;;;;20.75;15.35;;;17.10;99.90;;;;;;7370009;19;20581;-65
2023/07/22 07:39:08;;;;;;;34.72;30.92;;;17.00;99.90;;;;;;7371058;19;20015;-61
2023/07/22 07:41:34;;;;;;;75.78;67.93;;;17.30;99.90;;;;;;7367784;19;20480;-60
2023/07/22 07:44:00;;;;;;;81.55;73.05;;;17.80;99.90;;;;;;7368937;19;20022;-60
2023/07/22 07:46:28;;;;;;;27.92;24.08;;;18.20;99.90;;;;;;7367824;19;20070;-61
2023/07/22 07:48:57;;;;;;;29.60;24.65;;;18.50;99.90;;;;;;7367954;19;20025;-61
2023/07/22 07:51:24;;;;;;;21.55;17.27;;;18.80;99.90;;;;;;7367781;19;20010;-62
2023/07/22 07:53:54;;;;;;;21.98;18.10;;;19.00;99.90;;;;;;7371050;19;20561;-62
2023/07/22 07:56:21;;;;;;;18.08;14.65;;;19.40;99.90;;;;;;7365399;19;20041;-62
2023/07/22 07:58:49;;;;;;;20.25;16.98;;;19.80;99.90;;;;;;7366256;19;20096;-62
2023/07/22 08:01:16;;;;;;;17.13;14.90;;;20.10;99.90;;;;;;7371036;19;20022;-62
2023/07/22 08:03:43;;;;;;;24.48;20.55;;;19.80;99.90;;;;;;7367548;19;20026;-61
2023/07/22 08:06:10;;;;;;;19.95;16.60;;;19.90;99.90;;;;;;7373865;19;20031;-61
2023/07/22 08:08:37;;;;;;;20.83;18.33;;;19.60;99.90;;;;;;7370974;19;20082;-61
2023/07/22 08:11:06;;;;;;;20.80;16.88;;;19.20;99.90;;;;;;7366600;19;20367;-61
2023/07/22 08:13:33;;;;;;;16.90;14.30;;;19.10;99.90;;;;;;7369118;19;20018;-61
2023/07/22 08:16:04;;;;;;;37.65;32.47;;;19.10;99.90;;;;;;7365266;19;20015;-60
2023/07/22 08:18:31;;;;;;;29.95;26.00;;;18.90;99.90;;;;;;7367237;19;20102;-62
2023/07/22 08:20:57;;;;;;;48.00;40.15;;;19.00;99.90;;;;;;7370482;19;20039;-61
2023/07/22 08:23:24;;;;;;;70.88;63.30;;;18.90;99.90;;;;;;7369428;19;20033;-61
2023/07/22 08:25:50;;;;;;;18.20;15.10;;;18.90;99.90;;;;;;7367708;19;20021;-60
2023/07/22 08:28:17;;;;;;;20.05;14.95;;;18.80;99.90;;;;;;7365823;19;20018;-60
2023/07/22 08:30:44;;;;;;;19.90;15.75;;;18.80;99.90;;;;;;7366256;19;20042;-60
2023/07/22 08:33:11;;;;;;;25.52;21.70;;;18.80;99.90;;;;;;7370137;19;20056;-60
2023/07/22 08:35:39;;;;;;;21.40;15.35;;;19.00;99.90;;;;;;7363863;19;21270;-60
2023/07/22 08:38:06;;;;;;;22.30;19.65;;;19.10;99.90;;;;;;7365960;19;20018;-60
2023/07/22 08:40:38;;;;;;;19.15;14.63;;;19.00;99.90;;;;;;7367912;19;20030;-61
2023/07/22 08:43:05;;;;;;;;;;;19.10;99.90;;;;;;7373779;19;20022;-61
2023/07/22 08:45:37;;;;;;;21.75;15.95;;;19.20;99.90;;;;;;7369332;19;19934;-60
2023/07/22 08:48:09;;;;;;;21.17;15.63;;;19.10;99.90;;;;;;7369086;19;20022;-61
2023/07/22 08:50:46;;;;;;;17.20;13.80;;;19.00;99.90;;;;;;7367267;19;20763;-61
2023/07/22 08:53:12;;;;;;;15.48;12.98;;;19.00;99.90;;;;;;7369203;19;20026;-63
2023/07/22 08:55:42;;;;;;;18.42;14.07;;;18.70;99.90;;;;;;7367445;19;20135;-61
2023/07/22 08:58:09;;;;;;;18.15;15.35;;;18.50;99.90;;;;;;7360969;19;20446;-61
2023/07/22 09:00:39;;;;;;;17.45;14.10;;;18.40;99.90;;;;;;7361301;19;20617;-63
2023/07/22 09:03:06;;;;;;;19.02;14.68;;;18.30;99.90;;;;;;7364146;19;20493;-62
2023/07/22 09:05:34;;;;;;;18.48;14.48;;;18.10;99.90;;;;;;7361624;19;20022;-63
2023/07/22 09:08:06;;;;;;;19.13;14.75;;;18.00;99.90;;;;;;7364878;19;20486;-61
2023/07/22 09:10:33;;;;;;;22.77;15.23;;;17.70;99.90;;;;;;7361032;19;20884;-61
2023/07/22 09:13:01;;;;;;;23.33;17.33;;;17.60;99.90;;;;;;7362022;19;20478;-58
2023/07/22 09:15:28;;;;;;;68.18;60.83;;;17.50;99.90;;;;;;7366553;19;20517;-61
2023/07/22 09:17:55;;;;;;;26.67;21.73;;;17.40;99.90;;;;;;7356798;19;20033;-62
2023/07/22 09:20:22;;;;;;;17.90;14.43;;;17.30;99.90;;;;;;7365464;19;20023;-61
2023/07/22 09:22:50;;;;;;;20.60;14.85;;;17.30;99.90;;;;;;7365648;19;20054;-61
2023/07/22 09:25:23;;;;;;;18.95;13.52;;;17.30;99.90;;;;;;7365371;19;20384;-60
2023/07/22 09:27:52;;;;;;;17.60;13.80;;;17.50;99.90;;;;;;7365341;19;20162;-60
2023/07/22 09:30:35;;;;;;;15.05;11.93;;;17.50;99.90;;;;;;7367482;19;20031;-60
2023/07/22 09:33:04;;;;;;;21.90;17.23;;;17.30;99.90;;;;;;7362716;19;20019;-61
2023/07/22 09:35:43;;;;;;;16.88;12.43;;;17.20;99.90;;;;;;7370170;19;20089;-62
2023/07/22 09:38:10;;;;;;;15.73;11.57;;;17.10;99.90;;;;;;7365293;19;20078;-62
2023/07/22 09:40:36;;;;;;;16.83;12.73;;;17.10;99.90;;;;;;7368051;19;20032;-62
2023/07/22 09:43:02;;;;;;;50.45;42.53;;;17.10;99.90;;;;;;7369318;19;20461;-62
2023/07/22 09:45:31;;;;;;;17.17;11.98;;;17.20;99.90;;;;;;7362467;19;20018;-62
2023/07/22 09:47:58;;;;;;;18.63;14.13;;;17.20;99.90;;;;;;7358291;19;20014;-62
2023/07/22 09:50:27;;;;;;;16.50;11.70;;;17.50;99.90;;;;;;7360506;19;22693;-62
2023/07/22 09:52:59;;;;;;;15.77;11.73;;;17.80;99.90;;;;;;7358349;19;20014;-62
2023/07/22 09:55:30;;;;;;;25.67;19.63;;;18.20;99.90;;;;;;7358823;19;20382;-62
2023/07/22 09:58:08;;;;;;;16.67;12.18;;;18.70;99.90;;;;;;7363611;19;20519;-62
2023/07/22 10:00:35;;;;;;;13.00;10.40;;;18.90;99.90;;;;;;7364009;19;20021;-62
2023/07/22 10:03:04;;;;;;;11.95;8.80;;;19.10;99.90;;;;;;7370444;19;20061;-62
2023/07/22 10:05:34;;;;;;;12.35;9.98;;;19.30;99.90;;;;;;7377610;19;20018;-63
2023/07/22 10:08:02;;;;;;;12.45;8.63;;;19.60;99.90;;;;;;7375375;19;20018;-64
2023/07/22 10:10:32;;;;;;;12.85;10.10;;;19.80;99.90;;;;;;7376301;19;20019;-63
2023/07/22 10:12:59;;;;;;;12.65;8.93;;;19.70;99.90;;;;;;7374248;19;20014;-62
2023/07/22 10:15:35;;;;;;;9.00;7.40;;;19.60;99.90;;;;;;7379922;19;20495;-63
2023/07/22 10:18:03;;;;;;;9.10;6.32;;;19.40;99.90;;;;;;7374850;19;20492;-62
2023/07/22 10:20:36;;;;;;;8.15;5.95;;;19.20;99.90;;;;;;7371196;19;20018;-62
2023/07/22 10:23:03;;;;;;;7.00;5.72;;;19.00;99.90;;;;;;7373820;19;20015;-61
2023/07/22 10:25:30;;;;;;;9.27;6.53;;;18.80;99.90;;;;;;7371669;19;20981;-60
2023/07/22 10:27:57;;;;;;;8.48;6.80;;;18.70;99.90;;;;;;7373712;19;20097;-60
2023/07/22 10:30:23;;;;;;;16.58;14.18;;;18.60;99.90;;;;;;7372566;19;20113;-61
2023/07/22 10:32:52;;;;;;;9.38;8.38;;;18.60;99.90;;;;;;7374724;19;20019;-60
2023/07/22 10:35:31;;;;;;;11.77;9.35;;;18.60;99.90;;;;;;7369982;19;20029;-62
2023/07/22 10:38:11;;;;;;;8.75;7.43;;;18.60;99.90;;;;;;7371450;19;20033;-62
2023/07/22 10:40:54;;;;;;;11.50;10.20;;;18.60;99.90;;;;;;7368634;19;20098;-62
2023/07/22 10:43:30;;;;;;;9.50;6.88;;;18.70;99.90;;;;;;7373018;19;20030;-63
2023/07/22 10:45:58;;;;;;;10.63;9.52;;;18.70;99.90;;;;;;7373103;19;20086;-62
2023/07/22 10:48:28;;;;;;;8.70;7.13;;;18.70;99.90;;;;;;7373546;19;20022;-60
2023/07/22 10:50:58;;;;;;;7.90;6.10;;;18.70;99.90;;;;;;7374313;19;20615;-61
2023/07/22 10:53:30;;;;;;;8.27;6.47;;;18.50;99.90;;;;;;7373595;19;20018;-62
2023/07/22 10:56:13;;;;;;;10.63;7.57;;;18.30;99.90;;;;;;7373668;19;20018;-60
2023/07/22 10:58:48;;;;;;;9.65;7.10;;;18.20;99.90;;;;;;7368989;19;20025;-60
2023/07/22 11:01:27;;;;;;;12.02;7.47;;;18.10;99.90;;;;;;7370251;19;20049;-62
2023/07/22 11:04:06;;;;;;;9.45;8.02;;;18.10;99.90;;;;;;7373990;19;20018;-61
2023/07/22 11:06:32;;;;;;;13.40;8.73;;;18.00;99.90;;;;;;7374545;19;20478;-61
2023/07/22 11:09:03;;;;;;;9.80;8.00;;;18.00;99.90;;;;;;7372848;19;20157;-61
2023/07/22 11:11:45;;;;;;;12.77;9.32;;;17.90;99.90;;;;;;7370647;19;20022;-61
2023/07/22 11:14:21;;;;;;;14.75;10.10;;;17.70;99.90;;;;;;7371013;19;20034;-57
2023/07/22 11:16:48;;;;;;;15.25;10.45;;;17.50;99.90;;;;;;7372125;19;20714;-57
2023/07/22 11:19:18;;;;;;;18.42;12.07;;;17.40;99.90;;;;;;7375464;19;20018;-57
2023/07/22 11:21:46;;;;;;;15.65;11.63;;;17.30;99.90;;;;;;7368838;19;20305;-61
2023/07/22 11:24:12;;;;;;;13.75;10.82;;;17.10;99.90;;;;;;7369577;19;20355;-57
2023/07/22 11:26:40;;;;;;;20.58;13.10;;;16.90;99.90;;;;;;7370604;19;20022;-57
2023/07/22 11:29:08;;;;;;;24.20;14.40;;;16.60;99.90;;;;;;7369351;19;20018;-57
2023/07/22 11:31:45;;;;;;;18.90;13.60;;;16.40;99.90;;;;;;7375530;19;20019;-57
2023/07/22 11:34:17;;;;;;;21.23;14.93;;;16.20;99.90;;;;;;7376693;19;20754;-58
2023/07/22 11:36:44;;;;;;;20.25;14.38;;;16.00;99.90;;;;;;7373019;19;20038;-63
2023/07/22 11:39:15;;;;;;;16.02;13.15;;;16.00;99.90;;;;;;7372683;19;20094;-62
2023/07/22 11:41:42;;;;;;;14.70;12.30;;;16.00;99.90;;;;;;7369600;19;20018;-63
2023/07/22 11:44:13;;;;;;;16.20;12.88;;;15.90;99.90;;;;;;7368681;19;20656;-63
2023/07/22 11:46:51;;;;;;;16.60;13.45;;;15.90;99.90;;;;;;7368647;19;20481;-62
2023/07/22 11:49:25;;;;;;;17.67;13.50;;;16.00;99.90;;;;;;7372060;19;20070;-63
2023/07/22 11:51:56;;;;;;;18.90;16.20;;;16.00;99.90;;;;;;7376131;19;20014;-66
2023/07/22 11:54:24;;;;;;;107.90;96.95;;;16.10;99.90;;;;;;7375601;19;20010;-63
2023/07/22 11:56:50;;;;;;;19.05;16.67;;;16.30;99.90;;;;;;7372784;19;20502;-62
2023/07/22 11:59:17;;;;;;;60.67;54.33;;;16.40;99.90;;;;;;7371667;19;20021;-62
2023/07/22 12:01:45;;;;;;;18.38;16.48;;;16.50;99.90;;;;;;7374874;19;20014;-62
2023/07/22 12:04:13;;;;;;;40.20;36.03;;;16.60;99.90;;;;;;7371555;19;20018;-62
2023/07/22 12:06:41;;;;;;;23.33;20.60;;;16.70;99.90;;;;;;7370047;19;20022;-62
2023/07/22 12:09:11;;;;;;;16.45;13.75;;;16.60;99.90;;;;;;7367660;19;20023;-62
2023/07/22 12:11:37;;;;;;;15.82;14.13;;;16.60;99.90;;;;;;7366176;19;20038;-63
2023/07/22 12:14:12;;;;;;;31.85;28.50;;;16.70;99.90;;;;;;7365894;19;20037;-62
2023/07/22 12:16:41;;;;;;;17.58;15.60;;;16.70;99.90;;;;;;7369646;19;20138;-63
2023/07/22 12:19:10;;;;;;;17.48;15.38;;;16.70;99.90;;;;;;7373865;19;20022;-63
2023/07/22 12:21:36;;;;;;;22.65;16.67;;;16.70;99.90;;;;;;7368375;19;20035;-63
2023/07/22 12:24:04;;;;;;;22.63;18.08;;;16.70;99.90;;;;;;7366818;19;20035;-63
2023/07/22 12:26:30;;;;;;;78.18;69.70;;;16.80;99.90;;;;;;7369644;19;20486;-59
2023/07/22 12:28:56;;;;;;;64.50;57.63;;;16.80;99.90;;;;;;7366446;19;20457;-59
2023/07/22 12:31:23;;;;;;;27.55;24.63;;;16.90;99.90;;;;;;7364723;19;20497;-63